Time;durP1;ratioP1;P1;durP2;ratioP2;P2;SDS_P1;SDS_P2;PMS_P1;PMS_P2;Temp;Humidity;BMP_temperature;BMP_pressure;BME280_temperature;BME280_humidity;BME280_pressure;Samples;Min_cycle;Max_cycle;Signal;HPM_P1;HPM_P2
2022/09/04 00:02:49;;;;;;;7.80;4.97;;;16.70;99.90;;;;;;5031859;28;20412;-73
2022/09/04 00:05:41;;;;;;;8.77;5.47;;;16.60;99.90;;;;;;5030990;28;20441;-73
2022/09/04 00:08:13;;;;;;;10.60;5.27;;;16.60;99.90;;;;;;5031788;28;20425;-73
2022/09/04 00:10:47;;;;;;;5.70;4.80;;;16.60;99.90;;;;;;5031833;28;20410;-74
2022/09/04 00:13:26;;;;;;;9.30;5.40;;;16.50;99.90;;;;;;5031783;28;20403;-73
2022/09/04 00:16:05;;;;;;;6.53;5.40;;;16.50;99.90;;;;;;5031589;28;20903;-73
2022/09/04 00:18:49;;;;;;;6.37;4.47;;;16.50;99.90;;;;;;5031646;28;20891;-73
2022/09/04 00:21:21;;;;;;;11.20;6.40;;;16.50;99.90;;;;;;5031136;28;20410;-73
2022/09/04 00:23:58;;;;;;;7.40;4.87;;;16.50;99.90;;;;;;5031597;28;20418;-73
2022/09/04 00:26:54;;;;;;;6.90;5.70;;;16.50;99.90;;;;;;5031904;28;20925;-73
2022/09/04 00:29:35;;;;;;;6.57;5.03;;;16.60;99.90;;;;;;5031964;28;20415;-73
2022/09/04 00:32:17;;;;;;;6.57;5.00;;;16.50;99.90;;;;;;5031478;28;20446;-74
2022/09/04 00:35:01;;;;;;;7.20;5.90;;;16.50;99.90;;;;;;5031203;28;20501;-74
2022/09/04 00:37:37;;;;;;;6.97;5.17;;;16.50;99.90;;;;;;5031821;28;20489;-73
2022/09/04 00:40:28;;;;;;;6.70;4.43;;;16.40;99.90;;;;;;5030354;28;20454;-73
2022/09/04 00:42:57;;;;;;;8.20;5.33;;;16.40;99.90;;;;;;5031456;28;20779;-73
2022/09/04 00:45:52;;;;;;;6.50;5.33;;;16.40;99.90;;;;;;5030694;28;20444;-73
2022/09/04 00:48:43;;;;;;;10.93;6.07;;;16.30;99.90;;;;;;5031539;28;20402;-73
2022/09/04 00:51:24;;;;;;;9.17;6.77;;;16.20;99.90;;;;;;5031130;28;20965;-73
2022/09/04 00:54:17;;;;;;;7.17;5.90;;;16.20;99.90;;;;;;5031399;28;20440;-73
2022/09/04 00:57:02;;;;;;;10.07;5.73;;;16.20;99.90;;;;;;5031143;28;20421;-73
2022/09/04 00:59:52;;;;;;;11.10;7.17;;;16.10;99.90;;;;;;5031381;28;20462;-73
2022/09/04 01:02:36;;;;;;;11.10;7.47;;;16.10;99.90;;;;;;5030578;28;20512;-73
2022/09/04 01:05:32;;;;;;;11.33;8.33;;;16.10;99.90;;;;;;5030588;28;21017;-74
2022/09/04 01:08:19;;;;;;;10.50;8.00;;;16.10;99.90;;;;;;5031140;28;20906;-73
2022/09/04 01:10:59;;;;;;;11.60;7.67;;;16.10;99.90;;;;;;5031336;28;20399;-73
2022/09/04 01:13:47;;;;;;;14.80;7.27;;;16.10;99.90;;;;;;5031115;28;20438;-73
2022/09/04 01:16:17;;;;;;;9.47;7.57;;;16.10;99.90;;;;;;5034657;28;20398;-73
2022/09/04 01:18:58;;;;;;;6.97;6.07;;;16.00;99.90;;;;;;5033878;28;20450;-73
2022/09/04 01:21:30;;;;;;;12.37;7.80;;;16.00;99.90;;;;;;5033739;28;20521;-73
2022/09/04 01:24:20;;;;;;;11.77;8.23;;;16.00;99.90;;;;;;5033381;28;20977;-73
2022/09/04 01:26:46;;;;;;;14.03;8.47;;;16.00;99.90;;;;;;5034804;28;20394;-73
2022/09/04 01:29:12;;;;;;;8.27;7.33;;;16.00;99.90;;;;;;5033635;28;20407;-74
2022/09/04 01:32:04;;;;;;;14.30;8.67;;;16.00;99.90;;;;;;5034747;28;20410;-73
2022/09/04 01:34:34;;;;;;;10.40;7.10;;;16.00;99.90;;;;;;5034074;28;20191;-73
2022/09/04 01:37:02;;;;;;;11.37;8.30;;;16.00;99.90;;;;;;5034930;28;20398;-73
2022/09/04 01:39:32;;;;;;;10.77;7.67;;;15.90;99.90;;;;;;5033072;28;21156;-73
2022/09/04 01:42:19;;;;;;;13.83;6.23;;;15.90;99.90;;;;;;5034649;28;20402;-73
2022/09/04 01:44:45;;;;;;;10.13;6.93;;;15.90;99.90;;;;;;5033400;28;20415;-73
2022/09/04 01:47:20;;;;;;;8.37;5.70;;;15.90;99.90;;;;;;5034651;28;20413;-73
2022/09/04 01:49:57;;;;;;;7.70;6.10;;;16.00;99.90;;;;;;5034395;28;20192;-73
2022/09/04 01:52:46;;;;;;;8.37;5.83;;;16.00;99.90;;;;;;5034254;28;20417;-72
2022/09/04 01:55:32;;;;;;;8.17;5.43;;;15.90;99.90;;;;;;5034060;28;20430;-73
2022/09/04 01:58:22;;;;;;;6.57;5.97;;;15.90;99.90;;;;;;5034091;28;20414;-73
2022/09/04 02:01:15;;;;;;;8.10;4.40;;;15.80;99.90;;;;;;5032913;28;20465;-73
2022/09/04 02:04:10;;;;;;;6.70;5.27;;;15.80;99.90;;;;;;5034106;28;20430;-74
2022/09/04 02:06:59;;;;;;;6.50;5.37;;;15.80;99.90;;;;;;5033993;28;20406;-74
2022/09/04 02:09:53;;;;;;;6.40;4.67;;;15.80;99.90;;;;;;5033854;28;20927;-73
2022/09/04 02:13:02;;;;;;;6.20;4.90;;;15.80;99.90;;;;;;5034113;28;20406;-73
2022/09/04 02:15:51;;;;;;;7.00;4.60;;;15.80;99.90;;;;;;5033740;28;20399;-73
2022/09/04 02:18:54;;;;;;;8.53;5.90;;;15.80;99.90;;;;;;5032279;28;20446;-73
2022/09/04 02:21:39;;;;;;;9.50;6.20;;;15.70;99.90;;;;;;5033632;28;20414;-73
2022/09/04 02:24:32;;;;;;;10.33;6.07;;;15.60;99.90;;;;;;5033555;28;20457;-73
2022/09/04 02:27:11;;;;;;;11.87;6.20;;;15.60;99.90;;;;;;5032946;28;20394;-73
2022/09/04 02:29:45;;;;;;;7.43;5.20;;;15.60;99.90;;;;;;5033646;28;20398;-73
2022/09/04 02:32:31;;;;;;;8.33;6.50;;;15.60;99.90;;;;;;5034294;28;20935;-73
2022/09/04 02:35:05;;;;;;;10.23;6.17;;;15.60;99.90;;;;;;5033098;28;20806;-73
2022/09/04 02:37:38;;;;;;;7.53;6.10;;;15.60;99.90;;;;;;5033871;28;20464;-73
2022/09/04 02:40:21;;;;;;;16.07;7.53;;;15.60;99.90;;;;;;5033547;28;20822;-73
2022/09/04 02:43:14;;;;;;;11.27;7.77;;;15.60;99.90;;;;;;5032064;28;20817;-73
2022/09/04 02:46:01;;;;;;;8.53;6.63;;;15.70;99.90;;;;;;5032832;28;20423;-73
2022/09/04 02:48:59;;;;;;;10.10;7.27;;;15.70;99.90;;;;;;5033440;28;20389;-73
2022/09/04 02:51:54;;;;;;;11.13;8.47;;;15.70;99.90;;;;;;5033109;28;20429;-74
2022/09/04 02:54:34;;;;;;;11.87;7.43;;;15.60;99.90;;;;;;5032926;28;20603;-73
2022/09/04 02:57:23;;;;;;;9.93;6.83;;;15.60;99.90;;;;;;5033246;28;20404;-73
2022/09/04 03:00:18;;;;;;;8.57;6.60;;;15.60;99.90;;;;;;5033294;28;20466;-73
2022/09/04 03:03:02;;;;;;;10.10;6.90;;;15.60;99.90;;;;;;5032863;28;20407;-73
2022/09/04 03:05:40;;;;;;;7.47;5.40;;;15.60;99.90;;;;;;5032506;28;20433;-73
2022/09/04 03:08:17;;;;;;;6.33;5.43;;;15.60;99.90;;;;;;5033314;28;20960;-73
2022/09/04 03:10:50;;;;;;;7.37;5.60;;;15.50;99.90;;;;;;5033092;28;20505;-74
2022/09/04 03:13:30;;;;;;;8.10;5.40;;;15.50;99.90;;;;;;5032732;28;20477;-73
2022/09/04 03:16:14;;;;;;;6.00;4.37;;;15.50;99.90;;;;;;5032687;28;20418;-73
2022/09/04 03:19:19;;;;;;;8.00;5.87;;;15.50;99.90;;;;;;5032996;28;20978;-74
2022/09/04 03:22:09;;;;;;;8.63;5.77;;;15.40;99.90;;;;;;5032814;28;20825;-73
2022/09/04 03:24:43;;;;;;;6.10;4.53;;;15.40;99.90;;;;;;5032152;28;20509;-73
2022/09/04 03:27:13;;;;;;;11.63;6.17;;;15.40;99.90;;;;;;5032354;28;20853;-73
2022/09/04 03:29:45;;;;;;;9.50;4.70;;;15.30;99.90;;;;;;5032605;28;20493;-73
2022/09/04 03:32:10;;;;;;;5.20;4.53;;;15.30;99.90;;;;;;5032881;28;20414;-74
2022/09/04 03:34:40;;;;;;;6.30;5.70;;;15.30;99.90;;;;;;5032243;28;20426;-73
2022/09/04 03:37:22;;;;;;;6.30;4.60;;;15.30;99.90;;;;;;5032673;28;20702;-73
2022/09/04 03:40:14;;;;;;;10.50;5.83;;;15.40;99.90;;;;;;5032311;28;20466;-73
2022/09/04 03:42:47;;;;;;;7.47;5.70;;;15.30;99.90;;;;;;5031296;28;20876;-73
2022/09/04 03:45:20;;;;;;;8.07;5.10;;;15.30;99.90;;;;;;5031885;28;20430;-73
2022/09/04 03:48:09;;;;;;;6.43;5.33;;;15.30;99.90;;;;;;5032489;28;20410;-73
2022/09/04 03:50:35;;;;;;;7.07;5.53;;;15.30;99.90;;;;;;5032034;28;20436;-74
2022/09/04 03:53:13;;;;;;;5.80;4.70;;;15.20;99.90;;;;;;5032165;28;20430;-74
2022/09/04 03:56:02;;;;;;;9.20;3.97;;;15.30;99.90;;;;;;5031976;28;20159;-73
2022/09/04 03:58:52;;;;;;;5.00;3.83;;;15.30;99.90;;;;;;5032460;28;20457;-73
2022/09/04 04:01:49;;;;;;;3.40;2.57;;;15.30;99.90;;;;;;5032247;28;20421;-73
2022/09/04 04:04:50;;;;;;;3.33;2.77;;;15.20;99.90;;;;;;5042690;28;20472;-73
2022/09/04 04:07:45;;;;;;;3.50;2.90;;;15.10;99.90;;;;;;5032208;28;20793;-73
2022/09/04 04:10:38;;;;;;;4.97;3.70;;;15.10;99.90;;;;;;5031980;28;20419;-74
2022/09/04 04:13:41;;;;;;;6.80;4.47;;;15.00;99.90;;;;;;5031596;28;20403;-73
2022/09/04 04:16:29;;;;;;;4.93;3.70;;;15.00;99.90;;;;;;5015505;28;20422;-72
2022/09/04 04:19:32;;;;;;;4.73;4.33;;;14.90;99.90;;;;;;5012130;28;20785;-74
2022/09/04 04:21:58;;;;;;;5.30;3.67;;;14.90;99.90;;;;;;5012221;28;20895;-73
2022/09/04 04:24:46;;;;;;;5.87;4.30;;;14.90;99.90;;;;;;5011395;28;20566;-73
2022/09/04 04:27:47;;;;;;;7.23;4.83;;;14.90;99.90;;;;;;5019710;28;20218;-73
2022/09/04 04:30:16;;;;;;;6.57;4.07;;;14.80;99.90;;;;;;5031825;28;20410;-73
2022/09/04 04:33:01;;;;;;;6.53;4.40;;;14.80;99.90;;;;;;5031635;28;20398;-73
2022/09/04 04:35:56;;;;;;;8.60;5.50;;;14.80;99.90;;;;;;5031536;28;20401;-73
2022/09/04 04:38:34;;;;;;;6.83;5.40;;;14.80;99.90;;;;;;5031451;28;20438;-73
2022/09/04 04:41:13;;;;;;;8.97;5.97;;;14.80;99.90;;;;;;5031614;28;20406;-72
2022/09/04 04:44:04;;;;;;;9.43;5.97;;;14.80;99.90;;;;;;5031835;28;20425;-73
2022/09/04 04:46:48;;;;;;;9.37;6.60;;;14.80;99.90;;;;;;5031410;28;20402;-73
2022/09/04 04:49:27;;;;;;;8.30;6.17;;;14.80;99.90;;;;;;5032811;28;20897;-72
2022/09/04 04:52:17;;;;;;;7.60;6.73;;;14.80;99.90;;;;;;5035588;28;20520;-74
2022/09/04 04:55:05;;;;;;;9.97;5.90;;;14.90;99.90;;;;;;5035069;28;20430;-73
2022/09/04 04:57:55;;;;;;;14.17;8.67;;;14.90;99.90;;;;;;5035446;28;20912;-72
2022/09/04 05:00:35;;;;;;;8.70;6.77;;;15.00;99.90;;;;;;5035167;28;20414;-71
2022/09/04 05:03:01;;;;;;;9.70;7.10;;;15.00;99.90;;;;;;5035099;28;20498;-73
2022/09/04 05:05:54;;;;;;;12.80;7.80;;;15.00;99.90;;;;;;5034907;28;20505;-73
2022/09/04 05:08:32;;;;;;;7.13;6.27;;;15.00;99.90;;;;;;5035287;28;20226;-73
2022/09/04 05:11:26;;;;;;;8.73;4.50;;;15.00;99.90;;;;;;5034897;28;20483;-73
2022/09/04 05:14:29;;;;;;;4.10;3.60;;;15.00;99.90;;;;;;5034986;28;20433;-73
2022/09/04 05:17:18;;;;;;;6.97;4.37;;;15.00;99.90;;;;;;5035203;28;20398;-73
2022/09/04 05:20:14;;;;;;;7.17;3.63;;;14.90;99.90;;;;;;5034723;28;20453;-73
2022/09/04 05:23:04;;;;;;;3.40;3.07;;;14.90;99.90;;;;;;5033353;28;20418;-73
2022/09/04 05:26:00;;;;;;;6.03;4.73;;;15.00;99.90;;;;;;5034155;28;20405;-72
2022/09/04 05:28:29;;;;;;;5.20;4.40;;;14.90;99.90;;;;;;5034818;28;20766;-72
2022/09/04 05:31:11;;;;;;;7.10;4.70;;;15.00;99.90;;;;;;5034842;28;20410;-72
2022/09/04 05:33:50;;;;;;;6.00;5.10;;;15.10;99.90;;;;;;5034703;28;20426;-72
2022/09/04 05:36:20;;;;;;;8.80;6.00;;;15.10;99.90;;;;;;5034111;28;20434;-73
2022/09/04 05:39:04;;;;;;;8.40;5.93;;;15.20;99.90;;;;;;5034481;28;20438;-73
2022/09/04 05:41:48;;;;;;;8.67;6.47;;;15.40;99.90;;;;;;5034868;28;20966;-72
2022/09/04 05:44:51;;;;;;;9.00;6.23;;;15.50;99.90;;;;;;5034071;28;20426;-72
2022/09/04 05:47:54;;;;;;;9.33;7.50;;;15.60;99.90;;;;;;5014608;28;20784;-72
2022/09/04 05:50:32;;;;;;;8.50;6.60;;;15.70;99.90;;;;;;5013191;28;20784;-72
2022/09/04 05:53:23;;;;;;;11.00;6.60;;;15.90;99.90;;;;;;5014624;28;20916;-72
2022/09/04 05:56:20;;;;;;;9.47;6.23;;;16.00;99.90;;;;;;5022595;28;20414;-72
2022/09/04 05:59:21;;;;;;;9.47;6.17;;;16.20;99.90;;;;;;5034085;28;20449;-73
2022/09/04 06:02:31;;;;;;;13.67;7.50;;;16.40;99.90;;;;;;5033176;28;20407;-72
2022/09/04 06:05:05;;;;;;;9.37;6.80;;;16.80;99.90;;;;;;5033510;28;20426;-73
2022/09/04 06:07:52;;;;;;;11.70;7.80;;;17.10;99.90;;;;;;5034424;28;20417;-73
2022/09/04 06:10:48;;;;;;;8.17;7.00;;;17.60;99.90;;;;;;5034114;28;20386;-72
2022/09/04 06:13:32;;;;;;;8.30;6.60;;;18.10;99.90;;;;;;5033967;28;20410;-72
2022/09/04 06:16:10;;;;;;;7.07;5.60;;;18.70;99.90;;;;;;5033543;28;20428;-74
2022/09/04 06:18:50;;;;;;;8.13;5.10;;;19.20;99.90;;;;;;5033749;28;20442;-74
2022/09/04 06:21:46;;;;;;;7.80;5.30;;;19.50;99.90;;;;;;5033741;28;20414;-74
2022/09/04 06:24:36;;;;;;;6.93;5.13;;;19.90;99.90;;;;;;5033277;28;20492;-71
2022/09/04 06:27:29;;;;;;;5.23;4.73;;;20.30;99.90;;;;;;5033748;28;20394;-71
2022/09/04 06:30:11;;;;;;;6.53;4.87;;;20.80;99.90;;;;;;5033831;28;20416;-74
2022/09/04 06:33:05;;;;;;;5.30;4.73;;;21.20;99.90;;;;;;5033751;28;20962;-74
2022/09/04 06:35:59;;;;;;;7.53;5.53;;;21.60;99.90;;;;;;5033526;28;20822;-74
2022/09/04 06:38:37;;;;;;;5.17;4.60;;;21.80;99.90;;;;;;5032179;28;20962;-71
2022/09/04 06:41:19;;;;;;;5.77;5.00;;;22.10;99.90;;;;;;5033540;28;20394;-71
2022/09/04 06:43:51;;;;;;;5.80;4.80;;;22.30;99.90;;;;;;5032972;28;20966;-71
2022/09/04 06:46:37;;;;;;;5.20;4.70;;;22.20;99.90;;;;;;5032859;28;20397;-72
2022/09/04 06:49:28;;;;;;;6.63;5.70;;;21.90;99.90;;;;;;5032295;28;20874;-73
2022/09/04 06:52:22;;;;;;;7.13;5.80;;;21.50;99.90;;;;;;5033515;28;20422;-74
2022/09/04 06:54:59;;;;;;;4.53;4.07;;;21.30;99.90;;;;;;5033057;28;20441;-73
2022/09/04 06:57:37;;;;;;;8.00;5.20;;;20.90;99.90;;;;;;5033433;28;20483;-73
2022/09/04 07:00:07;;;;;;;7.50;5.60;;;20.80;99.90;;;;;;5033213;28;20461;-73
2022/09/04 07:02:55;;;;;;;6.50;5.50;;;20.60;99.90;;;;;;5033041;28;20453;-73
2022/09/04 07:05:32;;;;;;;7.53;6.07;;;20.60;99.90;;;;;;5032612;28;20433;-73
2022/09/04 07:08:19;;;;;;;6.13;4.80;;;20.60;99.90;;;;;;5032805;28;20480;-73
2022/09/04 07:11:22;;;;;;;6.73;5.00;;;20.80;99.90;;;;;;5032649;28;20402;-70
2022/09/04 07:14:15;;;;;;;7.13;5.90;;;21.00;99.90;;;;;;5032437;28;20425;-73
2022/09/04 07:16:53;;;;;;;6.30;5.07;;;21.00;99.90;;;;;;5032698;28;20447;-73
2022/09/04 07:19:28;;;;;;;5.60;4.80;;;21.30;99.90;;;;;;5030797;28;20442;-70
2022/09/04 07:22:37;;;;;;;7.00;5.00;;;22.00;99.90;;;;;;5032509;28;20394;-72
2022/09/04 07:25:22;;;;;;;5.33;4.80;;;23.10;99.90;;;;;;5031944;28;20429;-71
2022/09/04 07:28:21;;;;;;;6.80;4.50;;;24.60;99.90;;;;;;5032701;28;20433;-71
2022/09/04 07:31:04;;;;;;;5.80;5.20;;;25.50;99.90;;;;;;5032744;28;20398;-71
2022/09/04 07:33:54;;;;;;;7.30;5.00;;;26.60;99.90;;;;;;5012991;28;20423;-71
2022/09/04 07:36:41;;;;;;;5.10;4.60;;;27.50;99.90;;;;;;5027340;28;20415;-71
2022/09/04 07:39:18;;;;;;;4.13;3.70;;;27.80;99.90;;;;;;5027933;28;20509;-72
2022/09/04 07:42:18;;;;;;;5.37;3.77;;;27.60;99.90;;;;;;5012973;28;20431;-71
2022/09/04 07:44:53;;;;;;;7.33;5.37;;;27.00;99.90;;;;;;5024078;28;20789;-70
2022/09/04 07:47:29;;;;;;;5.63;4.13;;;26.80;99.90;;;;;;5032210;28;20394;-72
2022/09/04 07:50:18;;;;;;;5.83;4.40;;;26.40;99.90;;;;;;5032128;28;20398;-72
2022/09/04 07:52:53;;;;;;;4.40;3.63;;;26.40;99.90;;;;;;5032140;28;20409;-72
2022/09/04 07:55:21;;;;;;;4.90;4.10;;;26.60;99.90;;;;;;5031738;28;20437;-72
2022/09/04 07:57:52;;;;;;;4.17;3.80;;;26.60;99.90;;;;;;5032040;28;20430;-73
2022/09/04 08:00:21;;;;;;;4.00;3.60;;;26.40;99.90;;;;;;5031487;28;20460;-73
2022/09/04 08:03:03;;;;;;;4.47;3.63;;;26.40;99.90;;;;;;5031452;28;20399;-73
2022/09/04 08:05:48;;;;;;;6.17;4.47;;;26.30;99.90;;;;;;5031341;28;20954;-73
2022/09/04 08:08:40;;;;;;;5.03;4.40;;;26.20;99.90;;;;;;5032134;28;20484;-74
2022/09/04 08:11:20;;;;;;;4.40;3.87;;;26.40;99.90;;;;;;5032322;28;21061;-74
2022/09/04 08:14:13;;;;;;;4.13;3.43;;;26.70;99.90;;;;;;5030971;28;20426;-73
2022/09/04 08:16:38;;;;;;;5.67;3.80;;;27.20;99.90;;;;;;5031238;28;20978;-74
2022/09/04 08:19:34;;;;;;;3.70;3.40;;;27.70;99.90;;;;;;5030404;28;20541;-73
2022/09/04 08:22:01;;;;;;;4.50;3.00;;;28.10;99.90;;;;;;5031955;28;20163;-73
2022/09/04 08:24:45;;;;;;;4.67;3.20;;;28.70;99.90;;;;;;5030542;28;20426;-74
2022/09/04 08:27:38;;;;;;;3.60;3.30;;;29.40;99.90;;;;;;5031528;28;20406;-73
2022/09/04 08:30:09;;;;;;;3.73;2.93;;;30.40;99.90;;;;;;5011831;28;20442;-74
2022/09/04 08:33:10;;;;;;;3.63;3.13;;;31.80;99.90;;;;;;5011276;28;20426;-74
2022/09/04 08:36:02;;;;;;;3.90;2.80;;;33.60;94.40;;;;;;5011389;28;20446;-74
2022/09/04 08:38:57;;;;;;;5.37;3.13;;;35.10;80.90;;;;;;5021088;28;20939;-74
2022/09/04 08:41:35;;;;;;;3.07;2.77;;;36.50;68.10;;;;;;5032088;28;20954;-75
2022/09/04 08:44:25;;;;;;;4.13;3.23;;;37.30;61.90;;;;;;5031834;28;20476;-75
2022/09/04 08:47:10;;;;;;;3.13;2.73;;;38.20;58.10;;;;;;5032028;28;20429;-74
2022/09/04 08:49:50;;;;;;;3.27;2.73;;;39.50;55.00;;;;;;5033019;28;20417;-75
2022/09/04 08:52:38;;;;;;;3.63;2.70;;;40.20;52.80;;;;;;5031558;28;20744;-76
2022/09/04 08:55:18;;;;;;;2.70;2.50;;;40.70;50.30;;;;;;5031078;28;20406;-76
2022/09/04 08:58:16;;;;;;;3.80;2.60;;;41.60;49.10;;;;;;5031490;28;20905;-76
2022/09/04 09:01:19;;;;;;;2.90;2.60;;;42.30;46.10;;;;;;5029876;28;20400;-76
2022/09/04 09:04:42;;;;;;;2.27;2.10;;;42.30;44.30;;;;;;5031190;28;20397;-75
2022/09/04 09:07:26;;;;;;;2.50;2.13;;;42.70;45.00;;;;;;5028493;28;20418;-72
2022/09/04 09:10:31;;;;;;;3.03;2.60;;;43.50;43.90;;;;;;5028808;28;20398;-72
2022/09/04 09:13:44;;;;;;;3.00;2.47;;;44.00;42.20;;;;;;4996869;28;20405;-73
2022/09/04 09:16:46;;;;;;;2.73;2.53;;;44.90;41.10;;;;;;5029128;28;20914;-76
2022/09/04 09:19:36;;;;;;;2.53;2.00;;;45.70;40.60;;;;;;5031192;28;20491;-73
2022/09/04 09:22:15;;;;;;;3.70;3.10;;;45.30;38.40;;;;;;5031018;28;20374;-73
2022/09/04 09:25:02;;;;;;;2.40;2.20;;;45.60;38.80;;;;;;5029947;28;20474;-76
2022/09/04 09:27:36;;;;;;;2.67;2.47;;;46.00;38.50;;;;;;5030508;28;20385;-75
2022/09/04 09:30:19;;;;;;;2.60;2.40;;;46.40;37.30;;;;;;5031206;28;20401;-76
2022/09/04 09:32:56;;;;;;;2.47;2.27;;;46.60;36.90;;;;;;5031206;28;20856;-73
2022/09/04 09:35:50;;;;;;;2.40;2.20;;;46.90;35.50;;;;;;5031764;28;20429;-74
2022/09/04 09:38:43;;;;;;;2.57;2.33;;;46.50;37.00;;;;;;5034549;28;20402;-76
2022/09/04 09:41:27;;;;;;;2.57;2.27;;;47.10;35.80;;;;;;5034526;28;20377;-76
2022/09/04 09:44:22;;;;;;;2.83;2.63;;;47.50;35.50;;;;;;5034274;28;20389;-75
2022/09/04 09:47:12;;;;;;;2.60;2.40;;;48.00;35.00;;;;;;5034232;28;20869;-73
2022/09/04 09:49:59;;;;;;;2.83;2.63;;;48.30;34.70;;;;;;5034457;28;20907;-74
2022/09/04 09:52:54;;;;;;;3.00;2.80;;;49.10;34.00;;;;;;5034348;28;20433;-74
2022/09/04 09:55:57;;;;;;;2.63;2.43;;;48.60;33.30;;;;;;5033890;28;20410;-73
2022/09/04 09:58:46;;;;;;;4.30;3.20;;;48.90;33.30;;;;;;5034144;28;20785;-72
2022/09/04 10:01:28;;;;;;;5.27;2.80;;;48.40;33.60;;;;;;5034272;28;20384;-73
2022/09/04 10:04:10;;;;;;;2.67;2.47;;;48.40;34.30;;;;;;5033984;28;20496;-74
2022/09/04 10:06:58;;;;;;;2.87;2.67;;;47.80;32.80;;;;;;5033752;28;20385;-74
2022/09/04 10:09:36;;;;;;;2.83;2.27;;;46.70;34.20;;;;;;5033927;28;20385;-74
2022/09/04 10:12:37;;;;;;;15.00;11.97;;;45.40;34.00;;;;;;5032743;28;20476;-74
2022/09/04 10:15:24;;;;;;;2.70;2.50;;;43.50;36.70;;;;;;5033875;28;20401;-73
2022/09/04 10:18:08;;;;;;;2.20;2.00;;;43.60;38.00;;;;;;5033702;28;20960;-73
2022/09/04 10:21:09;;;;;;;4.37;4.07;;;44.70;36.30;;;;;;5032566;28;20422;-74
2022/09/04 10:23:52;;;;;;;3.67;3.37;;;45.10;36.40;;;;;;5033572;28;20952;-74
2022/09/04 10:26:18;;;;;;;3.10;2.47;;;46.30;35.00;;;;;;5033401;28;20380;-74
2022/09/04 10:28:55;;;;;;;2.40;2.20;;;47.00;34.20;;;;;;5033565;28;20381;-74
2022/09/04 10:32:01;;;;;;;2.40;2.20;;;47.10;34.80;;;;;;5033657;28;20647;-74
2022/09/04 10:35:07;;;;;;;2.83;2.43;;;47.40;33.90;;;;;;5033398;28;20421;-74
2022/09/04 10:37:46;;;;;;;1.83;1.70;;;46.40;33.90;;;;;;5032378;28;20393;-73
2022/09/04 10:40:42;;;;;;;2.03;1.87;;;44.80;34.20;;;;;;5033214;28;20430;-74
2022/09/04 10:43:20;;;;;;;2.80;2.30;;;43.70;35.70;;;;;;5031848;28;20428;-74
2022/09/04 10:46:02;;;;;;;1.70;1.60;;;44.30;36.00;;;;;;5033137;28;20987;-74
2022/09/04 10:48:45;;;;;;;3.50;3.20;;;45.30;35.30;;;;;;5032649;28;20380;-73
2022/09/04 10:51:33;;;;;;;3.03;2.30;;;46.70;33.90;;;;;;5033181;28;20911;-74
2022/09/04 10:54:12;;;;;;;2.10;2.00;;;47.60;32.70;;;;;;5033129;28;20438;-74
2022/09/04 10:57:24;;;;;;;2.07;1.97;;;48.50;32.20;;;;;;5033287;28;20772;-74
2022/09/04 11:00:05;;;;;;;1.93;1.83;;;49.50;31.20;;;;;;5048506;28;20545;-74
2022/09/04 11:03:02;;;;;;;2.00;1.90;;;50.30;30.50;;;;;;5032953;28;20402;-74
2022/09/04 11:05:49;;;;;;;2.67;2.10;;;49.10;29.70;;;;;;5031140;28;20509;-74
2022/09/04 11:09:01;;;;;;;1.67;1.57;;;48.00;30.50;;;;;;5032925;28;20393;-73
2022/09/04 11:11:57;;;;;;;2.27;2.07;;;46.60;31.10;;;;;;5032875;28;20372;-74
2022/09/04 11:14:51;;;;;;;17.47;14.47;;;45.30;32.70;;;;;;5032417;28;20418;-74
2022/09/04 11:17:47;;;;;;;4.30;3.90;;;44.80;33.80;;;;;;5032392;28;20905;-74
2022/09/04 11:21:01;;;;;;;1.80;1.70;;;45.70;33.40;;;;;;5032608;28;20800;-74
2022/09/04 11:23:48;;;;;;;1.90;1.80;;;45.20;32.60;;;;;;5032437;28;20393;-74
2022/09/04 11:26:46;;;;;;;2.17;1.50;;;44.50;33.30;;;;;;5032050;28;20409;-74
2022/09/04 11:29:28;;;;;;;1.80;1.50;;;43.30;33.00;;;;;;5032038;28;20474;-73
2022/09/04 11:31:54;;;;;;;2.13;1.93;;;42.20;35.00;;;;;;5032508;28;20406;-73
2022/09/04 11:34:32;;;;;;;1.73;1.63;;;40.30;35.60;;;;;;5030753;28;20440;-73
2022/09/04 11:37:25;;;;;;;1.97;1.40;;;38.50;37.80;;;;;;5032379;28;20259;-73
2022/09/04 11:40:28;;;;;;;2.43;1.63;;;37.40;40.10;;;;;;5032104;28;20465;-73
2022/09/04 11:43:18;;;;;;;1.63;1.53;;;36.60;42.10;;;;;;5032444;28;20437;-73
2022/09/04 11:46:02;;;;;;;2.47;1.53;;;35.90;42.10;;;;;;5031588;28;20406;-73
2022/09/04 11:48:56;;;;;;;1.70;1.40;;;35.10;44.10;;;;;;5032193;28;20421;-73
2022/09/04 11:51:46;;;;;;;1.87;1.57;;;34.70;44.10;;;;;;5031951;28;20430;-73
2022/09/04 11:54:28;;;;;;;3.83;2.73;;;34.10;45.10;;;;;;5011140;28;20443;-73
2022/09/04 11:57:24;;;;;;;2.17;1.97;;;33.70;46.30;;;;;;5012354;28;20422;-72
2022/09/04 12:00:15;;;;;;;2.10;2.00;;;33.60;47.20;;;;;;5013879;28;20458;-73
2022/09/04 12:03:08;;;;;;;1.73;1.23;;;33.50;46.80;;;;;;5030799;28;20442;-73
2022/09/04 12:05:49;;;;;;;2.53;1.60;;;33.50;46.20;;;;;;5031461;28;20398;-73
2022/09/04 12:08:34;;;;;;;2.00;1.50;;;33.30;46.40;;;;;;5032110;28;20435;-72
2022/09/04 12:11:09;;;;;;;2.17;1.70;;;33.50;46.30;;;;;;5031805;28;20437;-73
2022/09/04 12:14:07;;;;;;;2.47;1.50;;;33.80;46.80;;;;;;5032063;28;20504;-73
2022/09/04 12:16:49;;;;;;;2.87;1.30;;;34.20;46.90;;;;;;5031804;28;20977;-73
2022/09/04 12:19:41;;;;;;;2.10;1.63;;;34.40;45.80;;;;;;5031788;28;20464;-73
2022/09/04 12:22:15;;;;;;;2.03;1.20;;;34.60;46.00;;;;;;5012248;28;20403;-73
2022/09/04 12:25:01;;;;;;;2.30;2.10;;;35.10;46.10;;;;;;5020541;28;20547;-73
2022/09/04 12:27:54;;;;;;;1.50;1.40;;;36.10;44.60;;;;;;5031380;28;20413;-73
2022/09/04 12:30:24;;;;;;;2.77;1.97;;;36.70;42.00;;;;;;5031638;28;20405;-73
2022/09/04 12:32:59;;;;;;;1.70;1.60;;;37.50;41.80;;;;;;5031699;28;20460;-73
2022/09/04 12:35:38;;;;;;;2.60;1.40;;;38.10;39.80;;;;;;5031148;28;20973;-73
2022/09/04 12:38:36;;;;;;;2.07;1.70;;;37.90;40.50;;;;;;5031517;28;20410;-73
2022/09/04 12:41:15;;;;;;;1.77;1.53;;;38.70;40.90;;;;;;5031433;28;20422;-73
2022/09/04 12:44:12;;;;;;;1.77;1.67;;;40.10;39.90;;;;;;5029493;28;20404;-73
2022/09/04 12:46:51;;;;;;;2.10;1.73;;;42.00;38.90;;;;;;5029969;28;20911;-74
2022/09/04 12:49:57;;;;;;;3.00;1.77;;;43.80;36.50;;;;;;5031644;28;20404;-74
2022/09/04 12:52:56;;;;;;;1.60;1.47;;;43.40;36.00;;;;;;5030236;28;20433;-73
2022/09/04 12:55:33;;;;;;;1.83;1.40;;;42.40;35.30;;;;;;5030874;28;20430;-73
2022/09/04 12:58:20;;;;;;;1.80;1.70;;;42.30;34.90;;;;;;5030327;28;20417;-73
2022/09/04 13:01:09;;;;;;;2.30;2.10;;;42.70;33.80;;;;;;5031704;28;20418;-74
2022/09/04 13:03:44;;;;;;;2.10;2.00;;;43.50;35.30;;;;;;5030533;28;20439;-74
2022/09/04 13:07:00;;;;;;;3.30;1.90;;;44.60;34.90;;;;;;5011187;28;20403;-74
2022/09/04 13:09:31;;;;;;;2.00;1.90;;;46.00;32.50;;;;;;5011630;28;20403;-74
2022/09/04 13:12:19;;;;;;;2.07;1.90;;;47.10;30.20;;;;;;5015295;28;20411;-73
2022/09/04 13:14:56;;;;;;;1.90;1.80;;;46.70;29.50;;;;;;5024059;28;20439;-74
2022/09/04 13:17:57;;;;;;;1.87;1.77;;;45.80;30.10;;;;;;5034903;28;20373;-74
2022/09/04 13:20:54;;;;;;;2.80;2.60;;;45.20;31.00;;;;;;5034955;28;20452;-73
2022/09/04 13:23:37;;;;;;;2.00;1.90;;;44.60;30.40;;;;;;5034979;28;20402;-73
2022/09/04 13:26:11;;;;;;;2.30;1.73;;;42.90;30.80;;;;;;5034220;28;20439;-73
2022/09/04 13:28:51;;;;;;;2.43;2.23;;;41.10;32.10;;;;;;5033550;28;20425;-73
2022/09/04 13:31:32;;;;;;;2.23;2.03;;;39.90;33.60;;;;;;5034840;28;20413;-73
2022/09/04 13:34:09;;;;;;;2.33;2.13;;;40.10;35.90;;;;;;5034416;28;20491;-73
2022/09/04 13:36:52;;;;;;;1.87;1.70;;;41.00;35.50;;;;;;5033167;28;20422;-74
2022/09/04 13:40:06;;;;;;;1.60;1.50;;;42.20;34.10;;;;;;5034551;28;20416;-73
2022/09/04 13:42:47;;;;;;;2.30;2.10;;;42.20;33.70;;;;;;5033880;28;20917;-74
2022/09/04 13:45:24;;;;;;;1.87;1.77;;;42.30;33.80;;;;;;5033665;28;20464;-73
2022/09/04 13:48:02;;;;;;;2.43;1.87;;;41.80;33.60;;;;;;5034677;28;20968;-73
2022/09/04 13:50:54;;;;;;;2.53;2.10;;;40.90;34.50;;;;;;5034320;28;20430;-73
2022/09/04 13:53:42;;;;;;;1.30;1.20;;;40.60;35.30;;;;;;5033958;28;20410;-73
2022/09/04 13:56:14;;;;;;;3.43;2.07;;;40.60;34.20;;;;;;5034002;28;20517;-73
2022/09/04 13:58:50;;;;;;;2.13;1.93;;;40.50;35.20;;;;;;5034017;28;20458;-73
2022/09/04 14:01:22;;;;;;;2.70;2.43;;;41.20;36.90;;;;;;5034311;28;20745;-73
2022/09/04 14:03:53;;;;;;;1.77;1.67;;;42.10;35.40;;;;;;5033831;28;20942;-73
2022/09/04 14:06:22;;;;;;;2.00;1.80;;;42.00;32.50;;;;;;5033808;28;20405;-73
2022/09/04 14:08:52;;;;;;;2.40;2.20;;;42.00;34.10;;;;;;5034181;28;20479;-73
2022/09/04 14:11:32;;;;;;;2.13;1.93;;;41.80;34.60;;;;;;5032791;28;20822;-73
2022/09/04 14:14:22;;;;;;;2.63;2.23;;;41.30;34.30;;;;;;5033199;28;21313;-73
2022/09/04 14:16:49;;;;;;;1.97;1.77;;;40.60;35.70;;;;;;5032826;28;20773;-73
2022/09/04 14:19:36;;;;;;;2.23;2.03;;;39.80;36.50;;;;;;5033798;28;20947;-73
2022/09/04 14:22:25;;;;;;;1.50;1.40;;;39.10;36.60;;;;;;5032384;28;20914;-73